sensor_id;sensor_type;location;lat;lon;timestamp;P1;durP1;ratioP1;P2;durP2;ratioP2
51985;SDS011;38002;53.296;6.600;2022-09-24T00:01:32;44.80;;;26.52;;
51985;SDS011;38002;53.296;6.600;2022-09-24T00:06:36;36.08;;;25.50;;
51985;SDS011;38002;53.296;6.600;2022-09-24T00:11:43;39.60;;;26.98;;
51985;SDS011;38002;53.296;6.600;2022-09-24T00:16:44;39.03;;;29.05;;
51985;SDS011;38002;53.296;6.600;2022-09-24T00:21:45;37.03;;;28.50;;
51985;SDS011;38002;53.296;6.600;2022-09-24T00:26:45;44.63;;;31.73;;
51985;SDS011;38002;53.296;6.600;2022-09-24T00:31:49;31.98;;;24.05;;
51985;SDS011;38002;53.296;6.600;2022-09-24T00:36:51;44.58;;;32.55;;
51985;SDS011;38002;53.296;6.600;2022-09-24T00:41:52;40.20;;;29.97;;
51985;SDS011;38002;53.296;6.600;2022-09-24T00:46:53;37.97;;;26.58;;
51985;SDS011;38002;53.296;6.600;2022-09-24T00:51:54;46.72;;;33.22;;
51985;SDS011;38002;53.296;6.600;2022-09-24T00:56:55;44.38;;;29.10;;
51985;SDS011;38002;53.296;6.600;2022-09-24T01:01:59;41.45;;;30.83;;
51985;SDS011;38002;53.296;6.600;2022-09-24T01:06:59;52.08;;;34.10;;
51985;SDS011;38002;53.296;6.600;2022-09-24T01:33:20;38.45;;;29.02;;
51985;SDS011;38002;53.296;6.600;2022-09-24T01:38:24;40.88;;;29.38;;
51985;SDS011;38002;53.296;6.600;2022-09-24T01:43:28;54.85;;;37.70;;
51985;SDS011;38002;53.296;6.600;2022-09-24T01:48:37;48.75;;;36.83;;
51985;SDS011;38002;53.296;6.600;2022-09-24T01:53:46;41.72;;;30.88;;
51985;SDS011;38002;53.296;6.600;2022-09-24T01:59:02;48.72;;;35.70;;
51985;SDS011;38002;53.296;6.600;2022-09-24T02:04:09;57.25;;;38.22;;
51985;SDS011;38002;53.296;6.600;2022-09-24T02:09:36;52.20;;;36.15;;
51985;SDS011;38002;53.296;6.600;2022-09-24T02:14:41;46.65;;;33.85;;
51985;SDS011;38002;53.296;6.600;2022-09-24T02:19:47;57.53;;;38.45;;
51985;SDS011;38002;53.296;6.600;2022-09-24T02:29:52;42.80;;;33.10;;
51985;SDS011;38002;53.296;6.600;2022-09-24T02:34:54;44.38;;;32.40;;
51985;SDS011;38002;53.296;6.600;2022-09-24T02:40:02;62.35;;;39.42;;
51985;SDS011;38002;53.296;6.600;2022-09-24T02:45:04;57.67;;;41.00;;
51985;SDS011;38002;53.296;6.600;2022-09-24T02:50:05;47.47;;;33.72;;
51985;SDS011;38002;53.296;6.600;2022-09-24T02:55:06;43.83;;;32.70;;
51985;SDS011;38002;53.296;6.600;2022-09-24T03:00:07;50.05;;;35.60;;
51985;SDS011;38002;53.296;6.600;2022-09-24T03:05:08;37.47;;;27.90;;
51985;SDS011;38002;53.296;6.600;2022-09-24T03:10:09;47.00;;;32.42;;
51985;SDS011;38002;53.296;6.600;2022-09-24T03:15:10;39.47;;;27.67;;
51985;SDS011;38002;53.296;6.600;2022-09-24T03:20:10;34.25;;;25.67;;
51985;SDS011;38002;53.296;6.600;2022-09-24T03:25:11;30.05;;;21.75;;
51985;SDS011;38002;53.296;6.600;2022-09-24T03:30:12;27.10;;;21.65;;
51985;SDS011;38002;53.296;6.600;2022-09-24T03:35:31;21.08;;;14.50;;
51985;SDS011;38002;53.296;6.600;2022-09-24T03:40:32;17.60;;;12.48;;
51985;SDS011;38002;53.296;6.600;2022-09-24T03:45:32;22.75;;;15.75;;
51985;SDS011;38002;53.296;6.600;2022-09-24T03:50:36;14.13;;;6.18;;
51985;SDS011;38002;53.296;6.600;2022-09-24T03:55:41;11.88;;;2.53;;
51985;SDS011;38002;53.296;6.600;2022-09-24T04:00:52;7.28;;;2.42;;
51985;SDS011;38002;53.296;6.600;2022-09-24T04:05:53;6.87;;;1.73;;
51985;SDS011;38002;53.296;6.600;2022-09-24T04:10:53;15.73;;;2.60;;
51985;SDS011;38002;53.296;6.600;2022-09-24T04:15:54;9.57;;;2.40;;
51985;SDS011;38002;53.296;6.600;2022-09-24T04:20:58;6.63;;;1.30;;
51985;SDS011;38002;53.296;6.600;2022-09-24T04:25:59;7.47;;;1.45;;
51985;SDS011;38002;53.296;6.600;2022-09-24T04:31:01;16.90;;;1.88;;
51985;SDS011;38002;53.296;6.600;2022-09-24T04:36:01;9.30;;;2.28;;
51985;SDS011;38002;53.296;6.600;2022-09-24T04:41:08;11.38;;;2.13;;
51985;SDS011;38002;53.296;6.600;2022-09-24T04:46:08;11.57;;;2.05;;
51985;SDS011;38002;53.296;6.600;2022-09-24T04:51:09;8.60;;;1.80;;
51985;SDS011;38002;53.296;6.600;2022-09-24T04:56:09;4.32;;;1.50;;
51985;SDS011;38002;53.296;6.600;2022-09-24T05:01:10;5.17;;;1.27;;
51985;SDS011;38002;53.296;6.600;2022-09-24T05:06:12;10.13;;;1.65;;
51985;SDS011;38002;53.296;6.600;2022-09-24T05:11:12;7.82;;;1.88;;
51985;SDS011;38002;53.296;6.600;2022-09-24T05:16:13;6.55;;;1.50;;
51985;SDS011;38002;53.296;6.600;2022-09-24T05:21:13;10.10;;;1.58;;
51985;SDS011;38002;53.296;6.600;2022-09-24T05:26:14;8.50;;;1.60;;
51985;SDS011;38002;53.296;6.600;2022-09-24T05:31:33;10.35;;;1.52;;
51985;SDS011;38002;53.296;6.600;2022-09-24T05:36:34;9.90;;;1.65;;
51985;SDS011;38002;53.296;6.600;2022-09-24T05:41:35;7.35;;;2.42;;
51985;SDS011;38002;53.296;6.600;2022-09-24T05:46:35;15.13;;;1.70;;
51985;SDS011;38002;53.296;6.600;2022-09-24T05:51:36;12.88;;;1.92;;
51985;SDS011;38002;53.296;6.600;2022-09-24T05:56:37;10.63;;;2.80;;
51985;SDS011;38002;53.296;6.600;2022-09-24T06:01:37;13.98;;;1.45;;
51985;SDS011;38002;53.296;6.600;2022-09-24T06:06:38;4.00;;;1.85;;
51985;SDS011;38002;53.296;6.600;2022-09-24T06:11:38;9.10;;;1.52;;
51985;SDS011;38002;53.296;6.600;2022-09-24T06:16:39;8.50;;;1.85;;
51985;SDS011;38002;53.296;6.600;2022-09-24T06:21:39;7.60;;;1.58;;
51985;SDS011;38002;53.296;6.600;2022-09-24T06:26:40;7.32;;;2.17;;
51985;SDS011;38002;53.296;6.600;2022-09-24T06:31:40;16.60;;;1.98;;
51985;SDS011;38002;53.296;6.600;2022-09-24T06:36:41;15.23;;;2.28;;
51985;SDS011;38002;53.296;6.600;2022-09-24T06:41:41;16.33;;;2.58;;
51985;SDS011;38002;53.296;6.600;2022-09-24T06:46:42;13.13;;;1.60;;
51985;SDS011;38002;53.296;6.600;2022-09-24T06:51:42;8.63;;;1.83;;
51985;SDS011;38002;53.296;6.600;2022-09-24T06:56:43;8.70;;;1.52;;
51985;SDS011;38002;53.296;6.600;2022-09-24T07:01:46;10.40;;;1.70;;
51985;SDS011;38002;53.296;6.600;2022-09-24T07:06:47;5.88;;;1.48;;
51985;SDS011;38002;53.296;6.600;2022-09-24T07:12:20;4.22;;;1.30;;
51985;SDS011;38002;53.296;6.600;2022-09-24T07:17:20;10.48;;;1.73;;
51985;SDS011;38002;53.296;6.600;2022-09-24T07:22:21;8.32;;;1.52;;
51985;SDS011;38002;53.296;6.600;2022-09-24T07:27:22;5.50;;;0.73;;
51985;SDS011;38002;53.296;6.600;2022-09-24T07:32:22;7.90;;;1.33;;
51985;SDS011;38002;53.296;6.600;2022-09-24T07:37:23;4.82;;;1.10;;
51985;SDS011;38002;53.296;6.600;2022-09-24T07:42:24;3.42;;;1.08;;
51985;SDS011;38002;53.296;6.600;2022-09-24T07:47:25;7.18;;;1.20;;
51985;SDS011;38002;53.296;6.600;2022-09-24T07:52:25;6.38;;;1.30;;
51985;SDS011;38002;53.296;6.600;2022-09-24T07:57:26;8.70;;;1.52;;
51985;SDS011;38002;53.296;6.600;2022-09-24T08:02:26;3.95;;;1.42;;
51985;SDS011;38002;53.296;6.600;2022-09-24T08:07:26;8.90;;;1.20;;
51985;SDS011;38002;53.296;6.600;2022-09-24T08:12:27;12.32;;;1.67;;
51985;SDS011;38002;53.296;6.600;2022-09-24T08:17:28;7.32;;;1.50;;
51985;SDS011;38002;53.296;6.600;2022-09-24T08:22:28;11.70;;;1.58;;
51985;SDS011;38002;53.296;6.600;2022-09-24T08:27:29;11.15;;;1.90;;
51985;SDS011;38002;53.296;6.600;2022-09-24T08:32:31;15.23;;;1.95;;
51985;SDS011;38002;53.296;6.600;2022-09-24T08:37:32;16.00;;;2.17;;
51985;SDS011;38002;53.296;6.600;2022-09-24T08:42:39;3.72;;;1.27;;
51985;SDS011;38002;53.296;6.600;2022-09-24T08:47:57;6.03;;;1.70;;
51985;SDS011;38002;53.296;6.600;2022-09-24T08:53:06;6.07;;;1.30;;
51985;SDS011;38002;53.296;6.600;2022-09-24T09:03:52;5.22;;;1.20;;
51985;SDS011;38002;53.296;6.600;2022-09-24T09:09:00;7.93;;;1.83;;
51985;SDS011;38002;53.296;6.600;2022-09-24T09:19:40;5.32;;;1.42;;
51985;SDS011;38002;53.296;6.600;2022-09-24T09:24:49;5.55;;;1.92;;
51985;SDS011;38002;53.296;6.600;2022-09-24T09:29:55;8.00;;;1.05;;
51985;SDS011;38002;53.296;6.600;2022-09-24T09:35:00;2.38;;;0.60;;
51985;SDS011;38002;53.296;6.600;2022-09-24T09:50:43;7.20;;;1.00;;
51985;SDS011;38002;53.296;6.600;2022-09-24T09:55:53;6.35;;;0.77;;
51985;SDS011;38002;53.296;6.600;2022-09-24T10:01:14;7.80;;;1.00;;
51985;SDS011;38002;53.296;6.600;2022-09-24T10:06:23;8.23;;;1.05;;
51985;SDS011;38002;53.296;6.600;2022-09-24T10:11:28;4.18;;;1.23;;
51985;SDS011;38002;53.296;6.600;2022-09-24T10:16:29;4.50;;;1.10;;
51985;SDS011;38002;53.296;6.600;2022-09-24T10:21:33;4.07;;;0.93;;
51985;SDS011;38002;53.296;6.600;2022-09-24T10:26:36;2.60;;;0.85;;
51985;SDS011;38002;53.296;6.600;2022-09-24T10:31:39;13.05;;;1.35;;
51985;SDS011;38002;53.296;6.600;2022-09-24T10:41:49;11.15;;;1.02;;
51985;SDS011;38002;53.296;6.600;2022-09-24T11:08:00;5.90;;;1.45;;
51985;SDS011;38002;53.296;6.600;2022-09-24T11:34:52;7.28;;;0.90;;
51985;SDS011;38002;53.296;6.600;2022-09-24T11:45:45;3.38;;;0.70;;
51985;SDS011;38002;53.296;6.600;2022-09-24T11:56:02;4.43;;;1.00;;
51985;SDS011;38002;53.296;6.600;2022-09-24T12:01:15;5.20;;;0.88;;
51985;SDS011;38002;53.296;6.600;2022-09-24T12:11:45;3.13;;;1.83;;
51985;SDS011;38002;53.296;6.600;2022-09-24T12:16:54;6.78;;;1.20;;
51985;SDS011;38002;53.296;6.600;2022-09-24T12:22:00;3.70;;;0.93;;
51985;SDS011;38002;53.296;6.600;2022-09-24T12:27:05;9.90;;;1.35;;
51985;SDS011;38002;53.296;6.600;2022-09-24T12:37:41;3.85;;;0.85;;
51985;SDS011;38002;53.296;6.600;2022-09-24T12:42:47;10.80;;;0.95;;
51985;SDS011;38002;53.296;6.600;2022-09-24T12:47:53;5.35;;;0.70;;
51985;SDS011;38002;53.296;6.600;2022-09-24T12:52:57;4.25;;;0.90;;
51985;SDS011;38002;53.296;6.600;2022-09-24T12:58:05;3.83;;;0.70;;
51985;SDS011;38002;53.296;6.600;2022-09-24T13:03:35;2.78;;;0.47;;
51985;SDS011;38002;53.296;6.600;2022-09-24T13:08:38;4.15;;;0.70;;
51985;SDS011;38002;53.296;6.600;2022-09-24T13:13:39;3.22;;;0.82;;
51985;SDS011;38002;53.296;6.600;2022-09-24T13:18:49;6.07;;;1.08;;
51985;SDS011;38002;53.296;6.600;2022-09-24T13:23:51;9.98;;;1.83;;
51985;SDS011;38002;53.296;6.600;2022-09-24T13:28:56;6.50;;;1.00;;
51985;SDS011;38002;53.296;6.600;2022-09-24T13:34:05;7.53;;;1.13;;
51985;SDS011;38002;53.296;6.600;2022-09-24T13:39:35;5.35;;;1.35;;
51985;SDS011;38002;53.296;6.600;2022-09-24T13:45:03;4.13;;;1.45;;
51985;SDS011;38002;53.296;6.600;2022-09-24T13:50:07;5.10;;;1.42;;
51985;SDS011;38002;53.296;6.600;2022-09-24T13:55:17;2.88;;;1.13;;
51985;SDS011;38002;53.296;6.600;2022-09-24T14:00:22;3.95;;;0.90;;
51985;SDS011;38002;53.296;6.600;2022-09-24T14:05:26;7.18;;;0.73;;
51985;SDS011;38002;53.296;6.600;2022-09-24T14:10:28;7.95;;;1.42;;
51985;SDS011;38002;53.296;6.600;2022-09-24T14:15:28;3.10;;;0.77;;
51985;SDS011;38002;53.296;6.600;2022-09-24T14:20:32;5.15;;;0.73;;
51985;SDS011;38002;53.296;6.600;2022-09-24T14:25:34;4.25;;;0.82;;
51985;SDS011;38002;53.296;6.600;2022-09-24T14:35:45;2.20;;;0.90;;
51985;SDS011;38002;53.296;6.600;2022-09-24T14:40:56;4.05;;;1.27;;
51985;SDS011;38002;53.296;6.600;2022-09-24T14:46:01;4.85;;;1.20;;
51985;SDS011;38002;53.296;6.600;2022-09-24T14:51:26;2.88;;;1.13;;
51985;SDS011;38002;53.296;6.600;2022-09-24T14:56:29;6.82;;;1.20;;
51985;SDS011;38002;53.296;6.600;2022-09-24T15:01:31;7.10;;;1.35;;
51985;SDS011;38002;53.296;6.600;2022-09-24T15:06:33;6.77;;;1.57;;
51985;SDS011;38002;53.296;6.600;2022-09-24T15:11:36;4.55;;;1.20;;
51985;SDS011;38002;53.296;6.600;2022-09-24T15:16:40;2.42;;;1.00;;
51985;SDS011;38002;53.296;6.600;2022-09-24T15:21:41;11.52;;;2.20;;
51985;SDS011;38002;53.296;6.600;2022-09-24T15:26:44;2.57;;;1.03;;
51985;SDS011;38002;53.296;6.600;2022-09-24T15:31:46;6.93;;;1.50;;
51985;SDS011;38002;53.296;6.600;2022-09-24T15:36:47;5.47;;;1.10;;
51985;SDS011;38002;53.296;6.600;2022-09-24T15:41:51;3.63;;;1.58;;
51985;SDS011;38002;53.296;6.600;2022-09-24T15:46:51;4.60;;;1.13;;
51985;SDS011;38002;53.296;6.600;2022-09-24T15:56:54;10.68;;;1.83;;
51985;SDS011;38002;53.296;6.600;2022-09-24T16:01:56;3.35;;;1.58;;
51985;SDS011;38002;53.296;6.600;2022-09-24T16:07:00;8.15;;;1.00;;
51985;SDS011;38002;53.296;6.600;2022-09-24T16:12:00;2.75;;;0.80;;
51985;SDS011;38002;53.296;6.600;2022-09-24T16:17:01;3.75;;;0.77;;
51985;SDS011;38002;53.296;6.600;2022-09-24T16:22:01;6.82;;;1.73;;
51985;SDS011;38002;53.296;6.600;2022-09-24T16:27:02;6.50;;;1.20;;
51985;SDS011;38002;53.296;6.600;2022-09-24T16:32:03;6.15;;;1.45;;
51985;SDS011;38002;53.296;6.600;2022-09-24T16:37:03;5.50;;;0.90;;
51985;SDS011;38002;53.296;6.600;2022-09-24T16:42:04;6.65;;;1.10;;
51985;SDS011;38002;53.296;6.600;2022-09-24T16:47:04;5.30;;;0.88;;
51985;SDS011;38002;53.296;6.600;2022-09-24T16:52:05;5.63;;;1.10;;
51985;SDS011;38002;53.296;6.600;2022-09-24T16:57:05;5.80;;;1.13;;
51985;SDS011;38002;53.296;6.600;2022-09-24T17:02:06;6.10;;;1.17;;
51985;SDS011;38002;53.296;6.600;2022-09-24T17:07:07;6.07;;;2.17;;
51985;SDS011;38002;53.296;6.600;2022-09-24T17:12:09;5.63;;;1.20;;
51985;SDS011;38002;53.296;6.600;2022-09-24T17:17:10;5.47;;;1.40;;
51985;SDS011;38002;53.296;6.600;2022-09-24T17:22:10;9.32;;;1.85;;
51985;SDS011;38002;53.296;6.600;2022-09-24T17:27:11;4.80;;;1.33;;
51985;SDS011;38002;53.296;6.600;2022-09-24T17:32:11;9.02;;;1.60;;
51985;SDS011;38002;53.296;6.600;2022-09-24T17:37:12;3.63;;;1.77;;
51985;SDS011;38002;53.296;6.600;2022-09-24T17:42:12;8.95;;;1.85;;
51985;SDS011;38002;53.296;6.600;2022-09-24T17:47:13;8.65;;;2.35;;
51985;SDS011;38002;53.296;6.600;2022-09-24T17:52:13;11.77;;;1.42;;
51985;SDS011;38002;53.296;6.600;2022-09-24T17:57:15;6.28;;;1.23;;
51985;SDS011;38002;53.296;6.600;2022-09-24T18:02:16;4.45;;;1.00;;
51985;SDS011;38002;53.296;6.600;2022-09-24T18:07:16;7.03;;;1.65;;
51985;SDS011;38002;53.296;6.600;2022-09-24T18:12:18;6.90;;;1.88;;
51985;SDS011;38002;53.296;6.600;2022-09-24T18:17:18;7.97;;;1.92;;
51985;SDS011;38002;53.296;6.600;2022-09-24T18:22:19;6.10;;;1.73;;
51985;SDS011;38002;53.296;6.600;2022-09-24T18:27:19;5.95;;;1.60;;
51985;SDS011;38002;53.296;6.600;2022-09-24T18:32:20;2.37;;;1.10;;
51985;SDS011;38002;53.296;6.600;2022-09-24T18:37:23;3.50;;;1.13;;
51985;SDS011;38002;53.296;6.600;2022-09-24T18:42:23;5.15;;;1.15;;
51985;SDS011;38002;53.296;6.600;2022-09-24T18:52:26;8.32;;;1.60;;
51985;SDS011;38002;53.296;6.600;2022-09-24T18:57:27;4.32;;;1.27;;
51985;SDS011;38002;53.296;6.600;2022-09-24T19:02:28;5.28;;;1.13;;
51985;SDS011;38002;53.296;6.600;2022-09-24T19:07:28;4.47;;;1.40;;
51985;SDS011;38002;53.296;6.600;2022-09-24T19:12:29;7.47;;;1.52;;
51985;SDS011;38002;53.296;6.600;2022-09-24T19:17:31;4.65;;;1.40;;
51985;SDS011;38002;53.296;6.600;2022-09-24T19:22:31;2.83;;;1.55;;
51985;SDS011;38002;53.296;6.600;2022-09-24T19:27:32;6.10;;;1.50;;
51985;SDS011;38002;53.296;6.600;2022-09-24T19:32:33;7.70;;;2.20;;
51985;SDS011;38002;53.296;6.600;2022-09-24T19:37:34;6.35;;;2.00;;
51985;SDS011;38002;53.296;6.600;2022-09-24T19:42:34;4.57;;;1.65;;
51985;SDS011;38002;53.296;6.600;2022-09-24T19:47:36;3.53;;;1.40;;
51985;SDS011;38002;53.296;6.600;2022-09-24T19:52:36;8.90;;;1.98;;
51985;SDS011;38002;53.296;6.600;2022-09-24T19:57:37;4.05;;;1.30;;
51985;SDS011;38002;53.296;6.600;2022-09-24T20:02:38;11.18;;;1.90;;
51985;SDS011;38002;53.296;6.600;2022-09-24T20:07:38;2.97;;;0.90;;
51985;SDS011;38002;53.296;6.600;2022-09-24T20:12:41;6.55;;;1.35;;
51985;SDS011;38002;53.296;6.600;2022-09-24T20:17:45;5.85;;;1.83;;
51985;SDS011;38002;53.296;6.600;2022-09-24T20:22:46;5.15;;;1.42;;
51985;SDS011;38002;53.296;6.600;2022-09-24T20:27:46;6.22;;;0.98;;
51985;SDS011;38002;53.296;6.600;2022-09-24T20:32:50;4.22;;;1.52;;
51985;SDS011;38002;53.296;6.600;2022-09-24T20:37:50;5.60;;;1.35;;
51985;SDS011;38002;53.296;6.600;2022-09-24T20:42:51;3.33;;;0.80;;
51985;SDS011;38002;53.296;6.600;2022-09-24T20:47:51;4.90;;;1.77;;
51985;SDS011;38002;53.296;6.600;2022-09-24T20:52:52;3.60;;;1.08;;
51985;SDS011;38002;53.296;6.600;2022-09-24T20:57:52;3.53;;;1.38;;
51985;SDS011;38002;53.296;6.600;2022-09-24T21:02:53;3.90;;;1.27;;
51985;SDS011;38002;53.296;6.600;2022-09-24T21:07:54;3.13;;;1.45;;
51985;SDS011;38002;53.296;6.600;2022-09-24T21:12:55;5.18;;;1.63;;
51985;SDS011;38002;53.296;6.600;2022-09-24T21:17:55;5.68;;;1.63;;
51985;SDS011;38002;53.296;6.600;2022-09-24T21:22:56;5.72;;;1.65;;
51985;SDS011;38002;53.296;6.600;2022-09-24T21:28:00;7.90;;;1.73;;
51985;SDS011;38002;53.296;6.600;2022-09-24T21:33:01;2.47;;;1.23;;
51985;SDS011;38002;53.296;6.600;2022-09-24T21:38:01;3.42;;;1.48;;
51985;SDS011;38002;53.296;6.600;2022-09-24T21:43:01;5.68;;;1.70;;
51985;SDS011;38002;53.296;6.600;2022-09-24T21:48:05;4.70;;;1.90;;
51985;SDS011;38002;53.296;6.600;2022-09-24T21:53:06;3.20;;;1.73;;
51985;SDS011;38002;53.296;6.600;2022-09-24T21:58:07;5.17;;;1.70;;
51985;SDS011;38002;53.296;6.600;2022-09-24T22:03:08;8.35;;;2.10;;
51985;SDS011;38002;53.296;6.600;2022-09-24T22:08:09;4.10;;;1.60;;
51985;SDS011;38002;53.296;6.600;2022-09-24T22:13:13;3.97;;;1.48;;
51985;SDS011;38002;53.296;6.600;2022-09-24T22:18:16;5.28;;;1.70;;
51985;SDS011;38002;53.296;6.600;2022-09-24T22:23:17;2.67;;;1.20;;
51985;SDS011;38002;53.296;6.600;2022-09-24T22:28:17;4.88;;;1.30;;
51985;SDS011;38002;53.296;6.600;2022-09-24T22:33:22;3.70;;;1.25;;
51985;SDS011;38002;53.296;6.600;2022-09-24T22:38:41;5.57;;;1.23;;
51985;SDS011;38002;53.296;6.600;2022-09-24T22:43:42;8.98;;;1.17;;
51985;SDS011;38002;53.296;6.600;2022-09-24T22:48:42;3.85;;;1.50;;
51985;SDS011;38002;53.296;6.600;2022-09-24T22:53:44;8.90;;;1.55;;
51985;SDS011;38002;53.296;6.600;2022-09-24T22:58:48;5.03;;;1.27;;
51985;SDS011;38002;53.296;6.600;2022-09-24T23:03:51;4.75;;;1.60;;
51985;SDS011;38002;53.296;6.600;2022-09-24T23:08:53;4.45;;;1.13;;
51985;SDS011;38002;53.296;6.600;2022-09-24T23:13:56;2.07;;;1.10;;
51985;SDS011;38002;53.296;6.600;2022-09-24T23:18:58;4.25;;;1.17;;
51985;SDS011;38002;53.296;6.600;2022-09-24T23:24:01;1.92;;;1.08;;
51985;SDS011;38002;53.296;6.600;2022-09-24T23:29:12;6.05;;;1.02;;
51985;SDS011;38002;53.296;6.600;2022-09-24T23:34:13;1.90;;;1.10;;
51985;SDS011;38002;53.296;6.600;2022-09-24T23:39:14;3.55;;;1.13;;
51985;SDS011;38002;53.296;6.600;2022-09-24T23:44:14;4.28;;;1.02;;
51985;SDS011;38002;53.296;6.600;2022-09-24T23:49:15;2.05;;;0.90;;
51985;SDS011;38002;53.296;6.600;2022-09-24T23:54:15;3.70;;;1.15;;
51985;SDS011;38002;53.296;6.600;2022-09-24T23:59:16;2.80;;;1.10;;
